sensor_id;sensor_type;location;lat;lon;timestamp;temperature;humidity
80279;DHT22;70683;52.492;13.416;2024-01-30T00:00:43;6.90;66.90
80279;DHT22;70683;52.492;13.416;2024-01-30T00:03:10;6.80;67.20
80279;DHT22;70683;52.492;13.416;2024-01-30T00:05:36;6.80;67.00
80279;DHT22;70683;52.492;13.416;2024-01-30T00:08:03;6.80;66.80
80279;DHT22;70683;52.492;13.416;2024-01-30T00:10:30;6.80;67.10
80279;DHT22;70683;52.492;13.416;2024-01-30T00:12:57;6.80;66.90
80279;DHT22;70683;52.492;13.416;2024-01-30T00:15:23;6.80;67.20
80279;DHT22;70683;52.492;13.416;2024-01-30T00:17:50;6.80;67.90
80279;DHT22;70683;52.492;13.416;2024-01-30T00:20:18;6.70;67.40
80279;DHT22;70683;52.492;13.416;2024-01-30T00:22:45;6.70;67.40
80279;DHT22;70683;52.492;13.416;2024-01-30T00:25:12;6.70;67.80
80279;DHT22;70683;52.492;13.416;2024-01-30T00:27:38;6.70;67.70
80279;DHT22;70683;52.492;13.416;2024-01-30T00:30:06;6.70;67.80
80279;DHT22;70683;52.492;13.416;2024-01-30T00:32:33;6.80;67.30
80279;DHT22;70683;52.492;13.416;2024-01-30T00:34:59;6.70;67.30
80279;DHT22;70683;52.492;13.416;2024-01-30T00:37:26;6.60;67.50
80279;DHT22;70683;52.492;13.416;2024-01-30T00:39:52;6.70;67.50
80279;DHT22;70683;52.492;13.416;2024-01-30T00:42:19;6.70;67.40
80279;DHT22;70683;52.492;13.416;2024-01-30T00:44:47;6.60;67.50
80279;DHT22;70683;52.492;13.416;2024-01-30T00:47:13;6.50;68.10
80279;DHT22;70683;52.492;13.416;2024-01-30T00:49:40;6.50;68.20
80279;DHT22;70683;52.492;13.416;2024-01-30T00:52:07;6.40;68.50
80279;DHT22;70683;52.492;13.416;2024-01-30T00:54:33;6.50;68.60
80279;DHT22;70683;52.492;13.416;2024-01-30T00:57:00;6.50;68.50
80279;DHT22;70683;52.492;13.416;2024-01-30T00:59:26;6.40;68.30
80279;DHT22;70683;52.492;13.416;2024-01-30T01:01:54;6.50;68.10
80279;DHT22;70683;52.492;13.416;2024-01-30T01:04:21;6.60;67.80
80279;DHT22;70683;52.492;13.416;2024-01-30T01:06:47;6.50;68.00
80279;DHT22;70683;52.492;13.416;2024-01-30T01:09:14;6.50;68.20
80279;DHT22;70683;52.492;13.416;2024-01-30T01:11:41;6.50;67.90
80279;DHT22;70683;52.492;13.416;2024-01-30T01:14:07;6.50;68.20
80279;DHT22;70683;52.492;13.416;2024-01-30T01:16:34;6.50;68.20
80279;DHT22;70683;52.492;13.416;2024-01-30T01:19:00;6.50;68.30
80279;DHT22;70683;52.492;13.416;2024-01-30T01:21:27;6.50;68.60
80279;DHT22;70683;52.492;13.416;2024-01-30T01:23:54;6.50;68.80
80279;DHT22;70683;52.492;13.416;2024-01-30T01:26:20;6.50;68.70
80279;DHT22;70683;52.492;13.416;2024-01-30T01:28:47;6.50;68.80
80279;DHT22;70683;52.492;13.416;2024-01-30T01:31:14;6.50;68.40
80279;DHT22;70683;52.492;13.416;2024-01-30T01:33:41;6.60;68.20
80279;DHT22;70683;52.492;13.416;2024-01-30T01:36:07;6.50;68.90
80279;DHT22;70683;52.492;13.416;2024-01-30T01:38:34;6.50;68.30
80279;DHT22;70683;52.492;13.416;2024-01-30T01:41:00;6.40;69.00
80279;DHT22;70683;52.492;13.416;2024-01-30T01:43:27;6.30;69.40
80279;DHT22;70683;52.492;13.416;2024-01-30T01:45:54;6.40;69.30
80279;DHT22;70683;52.492;13.416;2024-01-30T01:48:20;6.30;69.50
80279;DHT22;70683;52.492;13.416;2024-01-30T01:50:47;6.30;69.60
80279;DHT22;70683;52.492;13.416;2024-01-30T01:53:15;6.30;69.40
80279;DHT22;70683;52.492;13.416;2024-01-30T01:55:42;6.30;69.90
80279;DHT22;70683;52.492;13.416;2024-01-30T01:58:09;6.30;69.60
80279;DHT22;70683;52.492;13.416;2024-01-30T02:00:39;6.30;69.80
80279;DHT22;70683;52.492;13.416;2024-01-30T02:03:10;6.30;69.80
80279;DHT22;70683;52.492;13.416;2024-01-30T02:05:39;6.30;69.60
80279;DHT22;70683;52.492;13.416;2024-01-30T02:08:06;6.20;69.40
80279;DHT22;70683;52.492;13.416;2024-01-30T02:10:33;6.20;70.20
80279;DHT22;70683;52.492;13.416;2024-01-30T02:13:00;6.20;69.60
80279;DHT22;70683;52.492;13.416;2024-01-30T02:15:26;6.20;69.40
80279;DHT22;70683;52.492;13.416;2024-01-30T02:17:55;6.10;70.00
80279;DHT22;70683;52.492;13.416;2024-01-30T02:20:23;6.10;69.90
80279;DHT22;70683;52.492;13.416;2024-01-30T02:22:52;6.10;69.80
80279;DHT22;70683;52.492;13.416;2024-01-30T02:25:20;6.00;70.60
80279;DHT22;70683;52.492;13.416;2024-01-30T02:27:49;6.00;70.80
80279;DHT22;70683;52.492;13.416;2024-01-30T02:30:16;6.00;70.60
80279;DHT22;70683;52.492;13.416;2024-01-30T02:32:42;6.00;71.10
80279;DHT22;70683;52.492;13.416;2024-01-30T02:35:09;5.90;71.90
80279;DHT22;70683;52.492;13.416;2024-01-30T02:37:36;6.00;71.10
80279;DHT22;70683;52.492;13.416;2024-01-30T02:40:02;6.00;71.20
80279;DHT22;70683;52.492;13.416;2024-01-30T02:42:29;6.00;71.60
80279;DHT22;70683;52.492;13.416;2024-01-30T02:44:56;6.10;71.30
80279;DHT22;70683;52.492;13.416;2024-01-30T02:47:22;6.10;71.70
80279;DHT22;70683;52.492;13.416;2024-01-30T02:49:49;6.10;70.80
80279;DHT22;70683;52.492;13.416;2024-01-30T02:52:16;6.10;70.50
80279;DHT22;70683;52.492;13.416;2024-01-30T02:54:42;6.10;70.30
80279;DHT22;70683;52.492;13.416;2024-01-30T02:57:09;6.10;70.00
80279;DHT22;70683;52.492;13.416;2024-01-30T02:59:35;6.10;70.00
80279;DHT22;70683;52.492;13.416;2024-01-30T03:02:02;6.10;70.40
80279;DHT22;70683;52.492;13.416;2024-01-30T03:04:29;6.00;70.50
80279;DHT22;70683;52.492;13.416;2024-01-30T03:06:56;6.00;70.60
80279;DHT22;70683;52.492;13.416;2024-01-30T03:09:22;6.00;70.80
80279;DHT22;70683;52.492;13.416;2024-01-30T03:11:49;6.00;70.80
80279;DHT22;70683;52.492;13.416;2024-01-30T03:14:16;5.90;70.90
80279;DHT22;70683;52.492;13.416;2024-01-30T03:16:42;5.90;71.60
80279;DHT22;70683;52.492;13.416;2024-01-30T03:19:09;5.90;71.50
80279;DHT22;70683;52.492;13.416;2024-01-30T03:21:37;5.90;72.10
80279;DHT22;70683;52.492;13.416;2024-01-30T03:24:04;5.90;72.30
80279;DHT22;70683;52.492;13.416;2024-01-30T03:26:31;6.00;72.00
80279;DHT22;70683;52.492;13.416;2024-01-30T03:28:57;6.00;71.60
80279;DHT22;70683;52.492;13.416;2024-01-30T03:31:24;6.00;71.40
80279;DHT22;70683;52.492;13.416;2024-01-30T03:33:50;6.00;71.50
80279;DHT22;70683;52.492;13.416;2024-01-30T03:36:17;6.00;72.00
80279;DHT22;70683;52.492;13.416;2024-01-30T03:38:44;6.00;71.60
80279;DHT22;70683;52.492;13.416;2024-01-30T03:41:10;6.00;71.60
80279;DHT22;70683;52.492;13.416;2024-01-30T03:43:37;5.90;72.10
80279;DHT22;70683;52.492;13.416;2024-01-30T03:46:04;5.90;72.00
80279;DHT22;70683;52.492;13.416;2024-01-30T03:48:30;5.90;72.50
80279;DHT22;70683;52.492;13.416;2024-01-30T03:50:57;5.90;72.50
80279;DHT22;70683;52.492;13.416;2024-01-30T03:53:24;5.80;72.40
80279;DHT22;70683;52.492;13.416;2024-01-30T03:55:50;5.80;72.40
80279;DHT22;70683;52.492;13.416;2024-01-30T03:58:17;5.80;72.50
80279;DHT22;70683;52.492;13.416;2024-01-30T04:00:43;5.80;72.60
80279;DHT22;70683;52.492;13.416;2024-01-30T04:03:10;5.70;72.80
80279;DHT22;70683;52.492;13.416;2024-01-30T04:05:37;5.70;73.00
80279;DHT22;70683;52.492;13.416;2024-01-30T04:08:04;5.70;73.10
80279;DHT22;70683;52.492;13.416;2024-01-30T04:10:31;5.80;73.10
80279;DHT22;70683;52.492;13.416;2024-01-30T04:12:57;5.70;73.10
80279;DHT22;70683;52.492;13.416;2024-01-30T04:15:24;5.70;73.70
80279;DHT22;70683;52.492;13.416;2024-01-30T04:17:50;5.70;73.70
80279;DHT22;70683;52.492;13.416;2024-01-30T04:20:17;5.80;73.50
80279;DHT22;70683;52.492;13.416;2024-01-30T04:22:44;5.80;74.00
80279;DHT22;70683;52.492;13.416;2024-01-30T04:25:12;5.80;73.20
80279;DHT22;70683;52.492;13.416;2024-01-30T04:27:39;5.80;73.30
80279;DHT22;70683;52.492;13.416;2024-01-30T04:30:06;5.70;73.30
80279;DHT22;70683;52.492;13.416;2024-01-30T04:32:33;5.70;73.20
80279;DHT22;70683;52.492;13.416;2024-01-30T04:35:00;5.70;73.40
80279;DHT22;70683;52.492;13.416;2024-01-30T04:37:26;5.60;73.50
80279;DHT22;70683;52.492;13.416;2024-01-30T04:39:53;5.60;73.90
80279;DHT22;70683;52.492;13.416;2024-01-30T04:42:20;5.60;74.00
80279;DHT22;70683;52.492;13.416;2024-01-30T04:44:46;5.60;74.00
80279;DHT22;70683;52.492;13.416;2024-01-30T04:47:13;5.60;74.00
80279;DHT22;70683;52.492;13.416;2024-01-30T04:49:40;5.50;74.10
80279;DHT22;70683;52.492;13.416;2024-01-30T04:52:07;5.60;74.00
80279;DHT22;70683;52.492;13.416;2024-01-30T04:54:35;5.60;73.90
80279;DHT22;70683;52.492;13.416;2024-01-30T04:57:02;5.60;73.90
80279;DHT22;70683;52.492;13.416;2024-01-30T04:59:29;5.60;74.10
80279;DHT22;70683;52.492;13.416;2024-01-30T05:01:55;5.50;74.50
80279;DHT22;70683;52.492;13.416;2024-01-30T05:04:22;5.50;74.70
80279;DHT22;70683;52.492;13.416;2024-01-30T05:06:49;5.50;75.10
80279;DHT22;70683;52.492;13.416;2024-01-30T05:09:15;5.60;75.00
80279;DHT22;70683;52.492;13.416;2024-01-30T05:11:42;5.60;74.80
80279;DHT22;70683;52.492;13.416;2024-01-30T05:14:09;5.70;74.60
80279;DHT22;70683;52.492;13.416;2024-01-30T05:16:38;5.70;74.70
80279;DHT22;70683;52.492;13.416;2024-01-30T05:19:05;5.70;74.40
80279;DHT22;70683;52.492;13.416;2024-01-30T05:21:31;5.80;73.70
80279;DHT22;70683;52.492;13.416;2024-01-30T05:23:58;5.80;73.90
80279;DHT22;70683;52.492;13.416;2024-01-30T05:26:25;5.70;74.30
80279;DHT22;70683;52.492;13.416;2024-01-30T05:28:52;5.60;74.70
80279;DHT22;70683;52.492;13.416;2024-01-30T05:31:19;5.70;74.30
80279;DHT22;70683;52.492;13.416;2024-01-30T05:33:46;5.70;74.00
80279;DHT22;70683;52.492;13.416;2024-01-30T05:36:13;5.70;74.20
80279;DHT22;70683;52.492;13.416;2024-01-30T05:38:39;5.60;74.20
80279;DHT22;70683;52.492;13.416;2024-01-30T05:41:06;5.60;74.30
80279;DHT22;70683;52.492;13.416;2024-01-30T05:43:32;5.70;75.10
80279;DHT22;70683;52.492;13.416;2024-01-30T05:45:59;5.60;74.50
80279;DHT22;70683;52.492;13.416;2024-01-30T05:48:26;5.70;74.10
80279;DHT22;70683;52.492;13.416;2024-01-30T05:50:53;5.60;74.30
80279;DHT22;70683;52.492;13.416;2024-01-30T05:53:20;5.60;74.70
80279;DHT22;70683;52.492;13.416;2024-01-30T05:55:47;5.60;75.00
80279;DHT22;70683;52.492;13.416;2024-01-30T05:58:13;5.50;75.10
80279;DHT22;70683;52.492;13.416;2024-01-30T06:00:40;5.50;75.30
80279;DHT22;70683;52.492;13.416;2024-01-30T06:03:07;5.60;74.70
80279;DHT22;70683;52.492;13.416;2024-01-30T06:05:34;5.70;74.40
80279;DHT22;70683;52.492;13.416;2024-01-30T06:08:01;5.70;74.50
80279;DHT22;70683;52.492;13.416;2024-01-30T06:10:28;5.60;74.60
80279;DHT22;70683;52.492;13.416;2024-01-30T06:12:55;5.70;74.60
80279;DHT22;70683;52.492;13.416;2024-01-30T06:15:21;5.60;74.60
80279;DHT22;70683;52.492;13.416;2024-01-30T06:17:48;5.60;74.70
80279;DHT22;70683;52.492;13.416;2024-01-30T06:20:14;5.60;75.10
80279;DHT22;70683;52.492;13.416;2024-01-30T06:22:41;5.60;75.30
80279;DHT22;70683;52.492;13.416;2024-01-30T06:25:08;5.70;74.60
80279;DHT22;70683;52.492;13.416;2024-01-30T06:27:35;5.70;74.20
80279;DHT22;70683;52.492;13.416;2024-01-30T06:30:01;5.70;74.40
80279;DHT22;70683;52.492;13.416;2024-01-30T06:32:28;5.70;74.40
80279;DHT22;70683;52.492;13.416;2024-01-30T06:34:54;5.70;75.60
80279;DHT22;70683;52.492;13.416;2024-01-30T06:37:21;5.80;74.30
80279;DHT22;70683;52.492;13.416;2024-01-30T06:39:48;5.80;74.40
80279;DHT22;70683;52.492;13.416;2024-01-30T06:42:14;5.70;74.80
80279;DHT22;70683;52.492;13.416;2024-01-30T06:44:42;5.70;74.60
80279;DHT22;70683;52.492;13.416;2024-01-30T06:47:08;5.80;74.30
80279;DHT22;70683;52.492;13.416;2024-01-30T06:49:35;5.80;74.00
80279;DHT22;70683;52.492;13.416;2024-01-30T06:52:05;5.80;73.90
80279;DHT22;70683;52.492;13.416;2024-01-30T06:54:32;5.80;73.90
80279;DHT22;70683;52.492;13.416;2024-01-30T06:56:59;5.80;74.10
80279;DHT22;70683;52.492;13.416;2024-01-30T06:59:26;5.80;73.90
80279;DHT22;70683;52.492;13.416;2024-01-30T07:01:52;5.80;74.40
80279;DHT22;70683;52.492;13.416;2024-01-30T07:04:19;5.80;74.40
80279;DHT22;70683;52.492;13.416;2024-01-30T07:06:45;5.80;74.10
80279;DHT22;70683;52.492;13.416;2024-01-30T07:09:12;5.80;74.30
80279;DHT22;70683;52.492;13.416;2024-01-30T07:11:39;5.90;74.30
80279;DHT22;70683;52.492;13.416;2024-01-30T07:14:08;5.90;74.20
80279;DHT22;70683;52.492;13.416;2024-01-30T07:16:35;5.90;74.00
80279;DHT22;70683;52.492;13.416;2024-01-30T07:19:02;6.00;73.70
80279;DHT22;70683;52.492;13.416;2024-01-30T07:21:29;6.10;73.50
80279;DHT22;70683;52.492;13.416;2024-01-30T07:23:55;6.00;73.80
80279;DHT22;70683;52.492;13.416;2024-01-30T07:26:22;6.00;73.70
80279;DHT22;70683;52.492;13.416;2024-01-30T07:28:48;6.10;74.00
80279;DHT22;70683;52.492;13.416;2024-01-30T07:31:16;6.20;73.50
80279;DHT22;70683;52.492;13.416;2024-01-30T07:33:42;6.20;73.60
80279;DHT22;70683;52.492;13.416;2024-01-30T07:36:09;6.20;73.20
80279;DHT22;70683;52.492;13.416;2024-01-30T07:38:36;6.30;73.10
80279;DHT22;70683;52.492;13.416;2024-01-30T07:41:03;6.30;72.90
80279;DHT22;70683;52.492;13.416;2024-01-30T07:43:30;6.40;72.00
80279;DHT22;70683;52.492;13.416;2024-01-30T07:45:56;6.40;72.40
80279;DHT22;70683;52.492;13.416;2024-01-30T07:48:23;6.50;72.10
80279;DHT22;70683;52.492;13.416;2024-01-30T07:50:49;6.50;72.30
80279;DHT22;70683;52.492;13.416;2024-01-30T07:53:16;6.50;72.40
80279;DHT22;70683;52.492;13.416;2024-01-30T07:55:43;6.60;72.50
80279;DHT22;70683;52.492;13.416;2024-01-30T07:58:11;6.60;72.30
80279;DHT22;70683;52.492;13.416;2024-01-30T08:00:38;6.70;71.80
80279;DHT22;70683;52.492;13.416;2024-01-30T08:03:05;6.80;71.10
80279;DHT22;70683;52.492;13.416;2024-01-30T08:05:31;6.80;71.90
80279;DHT22;70683;52.492;13.416;2024-01-30T08:07:58;6.90;72.10
80279;DHT22;70683;52.492;13.416;2024-01-30T08:10:24;6.80;72.50
80279;DHT22;70683;52.492;13.416;2024-01-30T08:12:51;6.90;71.40
80279;DHT22;70683;52.492;13.416;2024-01-30T08:15:18;6.80;71.40
80279;DHT22;70683;52.492;13.416;2024-01-30T08:17:46;6.90;72.00
80279;DHT22;70683;52.492;13.416;2024-01-30T08:20:12;6.90;71.00
80279;DHT22;70683;52.492;13.416;2024-01-30T08:22:42;6.90;70.80
80279;DHT22;70683;52.492;13.416;2024-01-30T08:25:09;6.90;70.70
80279;DHT22;70683;52.492;13.416;2024-01-30T08:27:36;7.00;70.50
80279;DHT22;70683;52.492;13.416;2024-01-30T08:30:06;7.10;69.70
80279;DHT22;70683;52.492;13.416;2024-01-30T08:32:33;7.00;70.00
80279;DHT22;70683;52.492;13.416;2024-01-30T08:34:59;7.00;69.80
80279;DHT22;70683;52.492;13.416;2024-01-30T08:37:28;7.10;70.10
80279;DHT22;70683;52.492;13.416;2024-01-30T08:39:55;7.20;69.60
80279;DHT22;70683;52.492;13.416;2024-01-30T08:42:23;7.20;69.80
80279;DHT22;70683;52.492;13.416;2024-01-30T08:44:51;7.20;69.80
80279;DHT22;70683;52.492;13.416;2024-01-30T08:47:19;7.30;69.80
80279;DHT22;70683;52.492;13.416;2024-01-30T08:49:45;7.40;69.40
80279;DHT22;70683;52.492;13.416;2024-01-30T08:52:12;7.40;69.10
80279;DHT22;70683;52.492;13.416;2024-01-30T08:54:39;7.50;69.10
80279;DHT22;70683;52.492;13.416;2024-01-30T08:57:05;7.60;68.70
80279;DHT22;70683;52.492;13.416;2024-01-30T08:59:32;7.70;67.80
80279;DHT22;70683;52.492;13.416;2024-01-30T09:01:59;7.70;67.80
80279;DHT22;70683;52.492;13.416;2024-01-30T09:04:26;7.80;67.50
80279;DHT22;70683;52.492;13.416;2024-01-30T09:06:53;7.90;67.10
80279;DHT22;70683;52.492;13.416;2024-01-30T09:11:59;8.00;67.10
80279;DHT22;70683;52.492;13.416;2024-01-30T09:14:28;8.10;66.20
80279;DHT22;70683;52.492;13.416;2024-01-30T09:16:54;8.10;65.60
80279;DHT22;70683;52.492;13.416;2024-01-30T09:19:21;8.10;65.40
80279;DHT22;70683;52.492;13.416;2024-01-30T09:21:48;8.20;65.70
80279;DHT22;70683;52.492;13.416;2024-01-30T09:24:14;8.20;65.70
80279;DHT22;70683;52.492;13.416;2024-01-30T09:26:41;8.20;65.20
80279;DHT22;70683;52.492;13.416;2024-01-30T09:29:08;8.20;65.30
80279;DHT22;70683;52.492;13.416;2024-01-30T09:31:34;8.30;64.80
80279;DHT22;70683;52.492;13.416;2024-01-30T09:34:01;8.30;65.00
80279;DHT22;70683;52.492;13.416;2024-01-30T09:36:27;8.40;65.20
80279;DHT22;70683;52.492;13.416;2024-01-30T09:38:54;8.40;64.80
80279;DHT22;70683;52.492;13.416;2024-01-30T09:41:23;8.40;64.60
80279;DHT22;70683;52.492;13.416;2024-01-30T09:43:51;8.50;64.70
80279;DHT22;70683;52.492;13.416;2024-01-30T09:46:21;8.50;64.50
80279;DHT22;70683;52.492;13.416;2024-01-30T09:48:50;8.60;64.10
80279;DHT22;70683;52.492;13.416;2024-01-30T09:51:17;8.60;64.70
80279;DHT22;70683;52.492;13.416;2024-01-30T09:53:44;8.70;63.70
80279;DHT22;70683;52.492;13.416;2024-01-30T09:56:12;8.80;63.10
80279;DHT22;70683;52.492;13.416;2024-01-30T09:58:39;8.90;63.40
80279;DHT22;70683;52.492;13.416;2024-01-30T10:01:07;8.90;63.60
80279;DHT22;70683;52.492;13.416;2024-01-30T10:03:34;9.00;63.60
80279;DHT22;70683;52.492;13.416;2024-01-30T10:06:01;9.10;62.80
80279;DHT22;70683;52.492;13.416;2024-01-30T10:08:28;9.10;62.50
80279;DHT22;70683;52.492;13.416;2024-01-30T10:10:56;9.20;62.00
80279;DHT22;70683;52.492;13.416;2024-01-30T10:13:23;9.30;61.80
80279;DHT22;70683;52.492;13.416;2024-01-30T10:15:49;9.40;60.80
80279;DHT22;70683;52.492;13.416;2024-01-30T10:18:17;9.50;59.90
80279;DHT22;70683;52.492;13.416;2024-01-30T10:20:44;9.60;60.00
80279;DHT22;70683;52.492;13.416;2024-01-30T10:23:11;9.70;59.70
80279;DHT22;70683;52.492;13.416;2024-01-30T10:25:38;9.70;59.30
80279;DHT22;70683;52.492;13.416;2024-01-30T10:28:05;9.80;58.90
80279;DHT22;70683;52.492;13.416;2024-01-30T10:30:32;9.90;58.30
80279;DHT22;70683;52.492;13.416;2024-01-30T10:32:58;9.90;58.00
80279;DHT22;70683;52.492;13.416;2024-01-30T10:35:25;10.00;57.70
80279;DHT22;70683;52.492;13.416;2024-01-30T10:37:52;9.90;57.70
80279;DHT22;70683;52.492;13.416;2024-01-30T10:40:21;10.00;57.80
80279;DHT22;70683;52.492;13.416;2024-01-30T10:42:50;10.00;57.70
80279;DHT22;70683;52.492;13.416;2024-01-30T10:45:19;10.10;56.90
80279;DHT22;70683;52.492;13.416;2024-01-30T10:47:49;10.10;57.20
80279;DHT22;70683;52.492;13.416;2024-01-30T10:50:16;10.10;57.40
80279;DHT22;70683;52.492;13.416;2024-01-30T10:52:43;10.10;57.30
80279;DHT22;70683;52.492;13.416;2024-01-30T10:55:11;10.10;57.00
80279;DHT22;70683;52.492;13.416;2024-01-30T10:57:38;10.20;56.70
80279;DHT22;70683;52.492;13.416;2024-01-30T11:00:08;10.20;56.80
80279;DHT22;70683;52.492;13.416;2024-01-30T11:02:40;10.20;57.10
80279;DHT22;70683;52.492;13.416;2024-01-30T11:05:07;10.20;57.30
80279;DHT22;70683;52.492;13.416;2024-01-30T11:07:34;10.20;57.10
80279;DHT22;70683;52.492;13.416;2024-01-30T11:10:03;10.30;57.10
80279;DHT22;70683;52.492;13.416;2024-01-30T11:12:32;10.30;56.90
80279;DHT22;70683;52.492;13.416;2024-01-30T11:15:05;10.30;56.80
80279;DHT22;70683;52.492;13.416;2024-01-30T11:17:42;10.30;56.80
80279;DHT22;70683;52.492;13.416;2024-01-30T11:20:11;10.40;57.00
80279;DHT22;70683;52.492;13.416;2024-01-30T11:22:37;10.30;56.80
80279;DHT22;70683;52.492;13.416;2024-01-30T11:25:04;10.40;57.80
80279;DHT22;70683;52.492;13.416;2024-01-30T11:27:32;10.40;56.60
80279;DHT22;70683;52.492;13.416;2024-01-30T11:30:02;10.40;56.40
80279;DHT22;70683;52.492;13.416;2024-01-30T11:32:29;10.50;56.40
80279;DHT22;70683;52.492;13.416;2024-01-30T11:34:56;10.50;56.30
80279;DHT22;70683;52.492;13.416;2024-01-30T11:37:25;10.50;56.50
80279;DHT22;70683;52.492;13.416;2024-01-30T11:39:54;10.60;56.60
80279;DHT22;70683;52.492;13.416;2024-01-30T11:42:22;10.70;55.80
80279;DHT22;70683;52.492;13.416;2024-01-30T11:44:50;10.70;56.30
80279;DHT22;70683;52.492;13.416;2024-01-30T11:47:17;10.80;56.50
80279;DHT22;70683;52.492;13.416;2024-01-30T11:49:44;10.80;56.20
80279;DHT22;70683;52.492;13.416;2024-01-30T11:52:11;10.90;56.00
80279;DHT22;70683;52.492;13.416;2024-01-30T11:54:40;10.90;55.90
80279;DHT22;70683;52.492;13.416;2024-01-30T11:57:06;11.10;55.70
80279;DHT22;70683;52.492;13.416;2024-01-30T11:59:33;11.10;55.70
80279;DHT22;70683;52.492;13.416;2024-01-30T12:02:00;11.20;55.40
80279;DHT22;70683;52.492;13.416;2024-01-30T12:04:28;11.30;55.50
80279;DHT22;70683;52.492;13.416;2024-01-30T12:06:56;11.30;55.20
80279;DHT22;70683;52.492;13.416;2024-01-30T12:09:22;11.40;55.30
80279;DHT22;70683;52.492;13.416;2024-01-30T12:11:49;11.40;55.00
80279;DHT22;70683;52.492;13.416;2024-01-30T12:14:16;11.40;55.10
80279;DHT22;70683;52.492;13.416;2024-01-30T12:16:43;11.50;55.00
80279;DHT22;70683;52.492;13.416;2024-01-30T12:19:21;11.50;54.40
80279;DHT22;70683;52.492;13.416;2024-01-30T12:21:43;11.50;54.70
80279;DHT22;70683;52.492;13.416;2024-01-30T12:24:10;11.60;55.00
80279;DHT22;70683;52.492;13.416;2024-01-30T12:26:37;11.60;54.90
80279;DHT22;70683;52.492;13.416;2024-01-30T12:29:04;11.60;54.60
80279;DHT22;70683;52.492;13.416;2024-01-30T12:31:32;11.60;54.40
80279;DHT22;70683;52.492;13.416;2024-01-30T12:34:00;11.60;54.50
80279;DHT22;70683;52.492;13.416;2024-01-30T12:36:28;11.60;55.10
80279;DHT22;70683;52.492;13.416;2024-01-30T12:38:57;11.60;55.40
80279;DHT22;70683;52.492;13.416;2024-01-30T12:41:25;11.60;54.90
80279;DHT22;70683;52.492;13.416;2024-01-30T12:43:55;11.60;54.80
80279;DHT22;70683;52.492;13.416;2024-01-30T12:46:27;11.60;55.10
80279;DHT22;70683;52.492;13.416;2024-01-30T12:48:54;11.60;55.50
80279;DHT22;70683;52.492;13.416;2024-01-30T12:51:21;11.60;55.30
80279;DHT22;70683;52.492;13.416;2024-01-30T12:53:47;11.50;56.00
80279;DHT22;70683;52.492;13.416;2024-01-30T12:56:15;11.50;55.90
80279;DHT22;70683;52.492;13.416;2024-01-30T12:58:42;11.50;55.90
80279;DHT22;70683;52.492;13.416;2024-01-30T13:01:09;11.50;55.40
80279;DHT22;70683;52.492;13.416;2024-01-30T13:03:36;11.50;55.60
80279;DHT22;70683;52.492;13.416;2024-01-30T13:06:03;11.50;56.00
80279;DHT22;70683;52.492;13.416;2024-01-30T13:08:30;11.50;55.90
80279;DHT22;70683;52.492;13.416;2024-01-30T13:10:56;11.50;56.10
80279;DHT22;70683;52.492;13.416;2024-01-30T13:13:23;11.50;56.10
80279;DHT22;70683;52.492;13.416;2024-01-30T13:15:49;11.50;56.70
80279;DHT22;70683;52.492;13.416;2024-01-30T13:18:16;11.50;56.60
80279;DHT22;70683;52.492;13.416;2024-01-30T13:20:43;11.40;56.70
80279;DHT22;70683;52.492;13.416;2024-01-30T13:23:09;11.40;57.00
80279;DHT22;70683;52.492;13.416;2024-01-30T13:25:36;11.40;57.30
80279;DHT22;70683;52.492;13.416;2024-01-30T13:28:04;11.40;57.60
80279;DHT22;70683;52.492;13.416;2024-01-30T13:30:31;11.50;57.80
80279;DHT22;70683;52.492;13.416;2024-01-30T13:32:57;11.50;57.40
80279;DHT22;70683;52.492;13.416;2024-01-30T13:35:24;11.50;57.10
80279;DHT22;70683;52.492;13.416;2024-01-30T13:37:50;11.60;56.60
80279;DHT22;70683;52.492;13.416;2024-01-30T13:40:17;11.50;57.00
80279;DHT22;70683;52.492;13.416;2024-01-30T13:42:44;11.50;57.40
80279;DHT22;70683;52.492;13.416;2024-01-30T13:45:10;11.50;57.70
80279;DHT22;70683;52.492;13.416;2024-01-30T13:47:37;11.50;58.00
80279;DHT22;70683;52.492;13.416;2024-01-30T13:50:05;11.40;58.20
80279;DHT22;70683;52.492;13.416;2024-01-30T13:52:32;11.50;58.20
80279;DHT22;70683;52.492;13.416;2024-01-30T13:54:58;11.50;58.40
80279;DHT22;70683;52.492;13.416;2024-01-30T13:57:26;11.50;58.40
80279;DHT22;70683;52.492;13.416;2024-01-30T13:59:53;11.60;59.00
80279;DHT22;70683;52.492;13.416;2024-01-30T14:02:20;11.50;58.70
80279;DHT22;70683;52.492;13.416;2024-01-30T14:04:46;11.60;58.70
80279;DHT22;70683;52.492;13.416;2024-01-30T14:07:13;11.60;58.40
80279;DHT22;70683;52.492;13.416;2024-01-30T14:09:40;11.60;58.40
80279;DHT22;70683;52.492;13.416;2024-01-30T14:12:07;11.60;58.30
80279;DHT22;70683;52.492;13.416;2024-01-30T14:14:34;11.60;58.50
80279;DHT22;70683;52.492;13.416;2024-01-30T14:17:00;11.60;58.40
80279;DHT22;70683;52.492;13.416;2024-01-30T14:19:27;11.60;58.30
80279;DHT22;70683;52.492;13.416;2024-01-30T14:21:54;11.70;58.40
80279;DHT22;70683;52.492;13.416;2024-01-30T14:24:20;11.70;58.60
80279;DHT22;70683;52.492;13.416;2024-01-30T14:26:47;11.70;59.10
80279;DHT22;70683;52.492;13.416;2024-01-30T14:29:14;11.70;58.70
80279;DHT22;70683;52.492;13.416;2024-01-30T14:31:41;11.70;58.80
80279;DHT22;70683;52.492;13.416;2024-01-30T14:34:07;11.70;59.00
80279;DHT22;70683;52.492;13.416;2024-01-30T14:36:38;11.70;58.90
80279;DHT22;70683;52.492;13.416;2024-01-30T14:39:04;11.70;59.10
80279;DHT22;70683;52.492;13.416;2024-01-30T14:41:32;11.70;59.20
80279;DHT22;70683;52.492;13.416;2024-01-30T14:43:59;11.70;59.10
80279;DHT22;70683;52.492;13.416;2024-01-30T14:46:25;11.70;59.50
80279;DHT22;70683;52.492;13.416;2024-01-30T14:48:53;11.60;59.50
80279;DHT22;70683;52.492;13.416;2024-01-30T14:51:20;11.60;59.70
80279;DHT22;70683;52.492;13.416;2024-01-30T14:53:47;11.60;60.00
80279;DHT22;70683;52.492;13.416;2024-01-30T14:56:13;11.50;60.10
80279;DHT22;70683;52.492;13.416;2024-01-30T14:58:40;11.50;60.00
80279;DHT22;70683;52.492;13.416;2024-01-30T15:01:07;11.50;60.20
80279;DHT22;70683;52.492;13.416;2024-01-30T15:03:33;11.50;60.30
80279;DHT22;70683;52.492;13.416;2024-01-30T15:06:01;11.50;62.10
80279;DHT22;70683;52.492;13.416;2024-01-30T15:08:30;11.50;61.20
80279;DHT22;70683;52.492;13.416;2024-01-30T15:10:59;11.50;61.20
80279;DHT22;70683;52.492;13.416;2024-01-30T15:13:26;11.50;61.10
80279;DHT22;70683;52.492;13.416;2024-01-30T15:15:52;11.40;61.10
80279;DHT22;70683;52.492;13.416;2024-01-30T15:18:19;11.40;61.30
80279;DHT22;70683;52.492;13.416;2024-01-30T15:20:46;11.30;61.20
80279;DHT22;70683;52.492;13.416;2024-01-30T15:23:12;11.30;61.60
80279;DHT22;70683;52.492;13.416;2024-01-30T15:25:40;11.20;62.10